Coy, AL (36435)

5:15 PM CDT on September 20, 2014 (GMT -0500)
KALFRISC2 | Change Station
CLOSE
Current Station
Personal Weather Station
Location: Perdue Hill, AL
Elevation: 70 ft
Nearby Weather Stations

Elev 70 ft 31.58 °N, 87.49 °W | Updated 0 second ago

Mostly Cloudy
Mostly Cloudy
83.0 °F
Feels Like 86 °F
N
5.0
Wind Variable Wind from ESE
Gusts 6.0 mph

Today
High -- | Low -- °F
--% Chance of Precip.
Yesterday
High -- | Low -- °F
Precip. -- in
6:36 AM 6:48 PM
Waning Crescent, 10% visible
Pressure 29.99 in
Visibility 10.0 miles
Clouds Few 3900 ft
Heat Index 86 °F
Dew Point 69 °F
Humidity 62%
Rainfall 0.00 in
Snow Depth Not available.
UV 2 out of 12
Pollen 7.90 out of 12
Air Quality Not available.
Flu Activity Not available.
METAR KGZH 202153Z AUTO 04007KT 10SM FEW039 28/19 A2999 RMK AO2 SLP153 T02830194

More Conditions Fewer Conditions

Pressure 29.99 in
Visibility 10.0 miles
Clouds Few 3900 ft
Heat Index 86 °F
Dew Point 69 °F
Humidity 62%
Rainfall 0.00 in
Snow Depth Not available.
UV 2 out of 12
Pollen 7.90 out of 12
Air Quality Not available.
Flu Activity Not available.
METAR KGZH 202153Z AUTO 04007KT 10SM FEW039 28/19 A2999 RMK AO2 SLP153 T02830194

More Conditions Fewer Conditions

10-Day Weather Forecast

Almanac

Astronomy

Sep. 20, 2014 Rise Set
Actual Time 6:36 AM CDT 6:48 PM CDT
Civil Twilight 6:11 AM CDT 7:12 PM CDT
Nautical Twilight 5:43 AM CDT 7:41 PM CDT
Astronomical Twilight 5:14 AM CDT 8:10 PM CDT
Moon 3:24 AM CDT 4:43 PM CDT
Length of Visible Light 13h 01m
Length of Day
12h 12m
Tomorrow will be 1m 55s shorter.
Waning Crescent, 10% of the Moon is Illuminated
Today
Waning Crescent
Sep 24
New
Oct 1
First Quarter
Oct 8
Full
Oct 15
Last Quarter

Today's Extremes

State Highs State Lows

Community

WunderPhotos

Upload Photos

1,754,968 photos uploaded!

WunderBlogs® & News

Nearby

Snow Depth

Station Depth Elevation
No new snow has been reported.

Earthquake Activity

City Distance Mag. Time & Date
No recent earthquake activity has been reported nearby.
Minimum magnitude displayed is 2.5.

Coastal Water Temperatures

Place Temperature
No Stations Reporting

Nearby Weather Stations